createdAt,value
2018-03-16T00:00:52.230Z,97250.00
2018-03-16T00:03:26.380Z,97259.36
2018-03-16T00:06:00.139Z,97258.25
2018-03-16T00:08:33.906Z,97255.95
2018-03-16T00:11:07.499Z,97259.28
2018-03-16T00:13:41.055Z,97258.89
2018-03-16T00:16:14.861Z,97264.91
2018-03-16T00:18:48.440Z,97263.88
2018-03-16T00:21:22.226Z,97265.47
2018-03-16T00:23:55.814Z,97268.63
2018-03-16T00:26:29.426Z,97272.99
2018-03-16T00:29:03.220Z,97267.13
2018-03-16T00:31:37.014Z,97269.19
2018-03-16T00:34:10.712Z,97277.03
2018-03-16T00:36:44.298Z,97280.75
2018-03-16T00:39:18.083Z,97273.86
2018-03-16T00:41:51.624Z,97279.64
2018-03-16T00:44:25.151Z,97286.06
2018-03-16T00:46:58.755Z,97281.46
2018-03-16T00:49:32.416Z,97293.83
2018-03-16T00:52:05.956Z,97281.78
2018-03-16T00:54:39.591Z,97276.95
2018-03-16T00:57:13.212Z,97270.46
2018-03-16T00:59:46.943Z,97272.44
2018-03-16T01:02:20.794Z,97272.91
2018-03-16T01:04:54.736Z,97270.78
2018-03-16T01:07:28.463Z,97277.50
2018-03-16T01:10:02.174Z,97275.54
2018-03-16T01:12:35.756Z,97271.26
2018-03-16T01:15:09.625Z,97269.05
2018-03-16T01:17:43.312Z,97265.72
2018-03-16T01:20:17.016Z,97264.29
2018-03-16T01:22:50.724Z,97260.33
2018-03-16T01:25:24.325Z,97265.08
2018-03-16T01:27:57.964Z,97261.36
2018-03-16T01:30:31.559Z,97259.45
2018-03-16T01:33:05.171Z,97259.55
2018-03-16T01:35:38.724Z,97251.20
2018-03-16T01:38:12.413Z,97251.12
2018-03-16T01:40:46.040Z,97253.18
2018-03-16T01:43:19.687Z,97255.33
2018-03-16T01:45:53.552Z,97260.39
2018-03-16T01:48:27.135Z,97253.73
2018-03-16T01:51:00.752Z,97255.16
2018-03-16T01:53:34.401Z,97256.27
2018-03-16T01:56:07.908Z,97256.35
2018-03-16T01:58:41.643Z,97258.30
2018-03-16T02:01:15.264Z,97260.23
2018-03-16T02:03:48.929Z,97263.64
2018-03-16T02:06:22.592Z,97263.14
2018-03-16T02:08:56.268Z,97258.49
2018-03-16T02:11:29.992Z,97268.39
2018-03-16T02:14:03.677Z,97267.73
2018-03-16T02:16:37.247Z,97266.47
2018-03-16T02:19:11.074Z,97270.50
2018-03-16T02:21:44.699Z,97267.18
2018-03-16T02:24:18.332Z,97267.73
2018-03-16T02:26:52.110Z,97272.25
2018-03-16T02:29:25.651Z,97270.75
2018-03-16T02:31:59.441Z,97278.34
2018-03-16T02:34:32.978Z,97277.88
2018-03-16T02:37:06.619Z,97286.58
2018-03-16T02:39:40.242Z,97284.60
2018-03-16T02:42:13.876Z,97286.82
2018-03-16T02:44:47.533Z,97285.00
2018-03-16T02:47:21.193Z,97282.86
2018-03-16T02:49:54.889Z,97287.30
2018-03-16T02:52:28.492Z,97287.37
2018-03-16T02:55:02.279Z,97294.42
2018-03-16T02:57:36.088Z,97288.64
2018-03-16T03:00:09.946Z,97290.14
2018-03-16T03:02:43.543Z,97289.94
2018-03-16T03:05:17.156Z,97287.72
2018-03-16T03:07:50.899Z,97287.93
2018-03-16T03:10:24.697Z,97288.01
2018-03-16T03:12:58.480Z,97288.98
2018-03-16T03:15:32.009Z,97289.38
2018-03-16T03:18:05.803Z,97283.89
2018-03-16T03:20:39.618Z,97293.47
2018-03-16T03:23:13.432Z,97292.05
2018-03-16T03:25:47.014Z,97292.52
2018-03-16T03:28:20.762Z,97295.72
2018-03-16T03:30:54.374Z,97303.21
2018-03-16T03:33:28.048Z,97301.78
2018-03-16T03:36:01.804Z,97307.89
2018-03-16T03:38:35.584Z,97313.98
2018-03-16T03:41:09.201Z,97318.58
2018-03-16T03:43:43.092Z,97320.66
2018-03-16T03:46:16.682Z,97328.58
2018-03-16T03:48:50.412Z,97324.78
2018-03-16T03:51:24.084Z,97329.93
2018-03-16T03:53:57.779Z,97322.16
2018-03-16T03:56:31.334Z,97327.88
2018-03-16T03:59:04.997Z,97328.11
2018-03-16T04:01:38.597Z,97328.34
2018-03-16T04:04:12.399Z,97319.72
2018-03-16T04:06:46.058Z,97318.61
2018-03-16T04:09:19.644Z,97324.52
2018-03-16T04:11:53.321Z,97319.68
2018-03-16T04:14:27.441Z,97325.97
2018-03-16T04:17:17.966Z,97331.48
2018-03-16T04:19:51.712Z,97331.09
2018-03-16T04:22:25.288Z,97321.74
2018-03-16T04:24:59.001Z,97325.39
2018-03-16T04:27:32.608Z,97333.55
2018-03-16T04:30:06.610Z,97339.88
2018-03-16T04:32:40.274Z,97345.02
2018-03-16T04:35:13.973Z,97340.14
2018-03-16T04:37:47.553Z,97344.66
2018-03-16T04:40:21.428Z,97348.81
2018-03-16T04:42:55.211Z,97344.77
2018-03-16T04:45:29.073Z,97352.38
2018-03-16T04:48:02.612Z,97359.27
2018-03-16T04:50:36.212Z,97363.31
2018-03-16T04:53:09.756Z,97367.98
2018-03-16T04:55:43.417Z,97369.01
2018-03-16T04:58:16.976Z,97371.39
2018-03-16T05:00:50.605Z,97372.58
2018-03-16T05:03:24.216Z,97365.28
2018-03-16T05:05:57.849Z,97373.37
2018-03-16T05:08:31.582Z,97374.71
2018-03-16T05:11:05.377Z,97375.69
2018-03-16T05:13:39.211Z,97377.75
2018-03-16T05:16:12.906Z,97379.70
2018-03-16T05:18:46.715Z,97381.29
2018-03-16T05:21:20.514Z,97380.26
2018-03-16T05:23:54.149Z,97382.74
2018-03-16T05:26:27.925Z,97385.04
2018-03-16T05:29:01.703Z,97387.89
2018-03-16T05:31:35.465Z,97389.48
2018-03-16T05:34:09.192Z,97384.22
2018-03-16T05:36:42.878Z,97379.49
2018-03-16T05:39:16.452Z,97388.37
2018-03-16T05:41:50.337Z,97390.75
2018-03-16T05:44:23.863Z,97394.70
2018-03-16T05:46:57.425Z,97394.78
2018-03-16T05:49:30.956Z,97402.16
2018-03-16T05:52:04.665Z,97396.37
2018-03-16T05:54:38.193Z,97396.69
2018-03-16T05:57:11.857Z,97401.36
2018-03-16T05:59:45.503Z,97398.11
2018-03-16T06:02:19.135Z,97405.41
2018-03-16T06:04:52.764Z,97407.86
2018-03-16T06:07:26.456Z,97410.00
2018-03-16T06:10:00.027Z,97413.48
2018-03-16T06:12:33.845Z,97410.63
2018-03-16T06:15:07.394Z,97415.14
2018-03-16T06:17:41.231Z,97416.33
2018-03-16T06:20:14.793Z,97419.38
2018-03-16T06:22:48.428Z,97415.70
2018-03-16T06:25:22.024Z,97425.05
2018-03-16T06:27:55.687Z,97424.97
2018-03-16T06:30:29.301Z,97430.95
2018-03-16T06:33:02.900Z,97432.69
2018-03-16T06:35:36.689Z,97431.71
2018-03-16T06:38:10.352Z,97437.36
2018-03-16T06:40:44.008Z,97436.56
2018-03-16T06:43:17.930Z,97440.61
2018-03-16T06:45:51.546Z,97447.82
2018-03-16T06:48:25.341Z,97442.74
2018-03-16T06:50:59.043Z,97443.30
2018-03-16T06:53:32.854Z,97449.88
2018-03-16T06:56:06.701Z,97452.02
2018-03-16T06:58:40.607Z,97448.61
2018-03-16T07:01:14.204Z,97451.22
2018-03-16T07:03:48.315Z,97450.83
2018-03-16T07:06:21.997Z,97449.78
2018-03-16T07:08:55.828Z,97452.89
2018-03-16T07:11:29.432Z,97454.41
2018-03-16T07:14:03.040Z,97457.34
2018-03-16T07:16:36.729Z,97463.36
2018-03-16T07:19:10.503Z,97462.39
2018-03-16T07:21:44.085Z,97465.19
2018-03-16T07:24:17.732Z,97466.77
2018-03-16T07:26:51.492Z,97468.92
2018-03-16T07:29:25.171Z,97468.66
2018-03-16T07:31:58.690Z,97473.95
2018-03-16T07:34:32.374Z,97470.04
2018-03-16T07:37:06.185Z,97477.34
2018-03-16T07:39:39.982Z,97476.36
2018-03-16T07:42:13.651Z,97487.03
2018-03-16T07:44:47.208Z,97491.16
2018-03-16T07:47:20.838Z,97488.16
2018-03-16T07:49:54.632Z,97499.86
2018-03-16T07:52:28.261Z,97495.20
2018-03-16T07:55:02.088Z,97489.84
2018-03-16T07:57:35.708Z,97498.97
2018-03-16T08:00:09.376Z,97502.33
2018-03-16T08:02:42.980Z,97503.48
2018-03-16T08:05:16.581Z,97511.33
2018-03-16T08:07:50.306Z,97511.45
2018-03-16T08:10:24.116Z,97515.80
2018-03-16T08:12:57.672Z,97519.19
2018-03-16T08:15:31.523Z,97524.45
2018-03-16T08:18:05.538Z,97524.05
2018-03-16T08:20:39.201Z,97532.66
2018-03-16T08:23:12.983Z,97528.61
2018-03-16T08:25:46.756Z,97528.97
2018-03-16T08:28:20.524Z,97526.64
2018-03-16T08:30:54.356Z,97527.06
2018-03-16T08:33:27.974Z,97524.09
2018-03-16T08:36:01.813Z,97529.37
2018-03-16T08:38:35.781Z,97530.80
2018-03-16T08:41:09.413Z,97528.11
2018-03-16T08:43:42.993Z,97525.74
2018-03-16T08:46:16.563Z,97526.18
2018-03-16T08:48:50.353Z,97521.38
2018-03-16T08:51:24.278Z,97529.31
2018-03-16T08:53:58.423Z,97522.77
2018-03-16T08:56:32.062Z,97523.36
2018-03-16T08:59:05.745Z,97531.20
2018-03-16T09:01:39.497Z,97537.41
2018-03-16T09:04:13.105Z,97526.74
2018-03-16T09:06:46.811Z,97534.20
2018-03-16T09:09:20.541Z,97539.17
2018-03-16T09:11:54.340Z,97530.53
2018-03-16T09:14:28.096Z,97537.70
2018-03-16T09:17:01.909Z,97535.45
2018-03-16T09:19:35.725Z,97538.61
2018-03-16T09:22:09.493Z,97537.67
2018-03-16T09:24:43.192Z,97540.59
2018-03-16T09:27:16.721Z,97538.38
2018-03-16T09:29:50.368Z,97537.09
2018-03-16T09:32:24.196Z,97539.58
2018-03-16T09:34:57.938Z,97541.55
2018-03-16T09:37:31.693Z,97545.39
2018-03-16T09:40:05.389Z,97546.90
2018-03-16T09:42:39.072Z,97547.13
2018-03-16T09:45:13.126Z,97547.17
2018-03-16T09:47:46.982Z,97546.80
2018-03-16T09:50:21.473Z,97550.80
2018-03-16T09:52:55.207Z,97556.34
2018-03-16T09:55:40.684Z,97560.82
2018-03-16T09:58:14.650Z,97560.98
2018-03-16T10:00:48.169Z,97556.34
2018-03-16T10:03:21.862Z,97556.75
2018-03-16T10:05:55.515Z,97564.20
2018-03-16T10:08:29.309Z,97565.73
2018-03-16T10:11:02.973Z,97554.78
2018-03-16T10:13:36.793Z,97566.56
2018-03-16T10:16:10.355Z,97566.66
2018-03-16T10:18:44.023Z,97568.75
2018-03-16T10:21:17.935Z,97568.34
2018-03-16T10:23:51.777Z,97574.28
2018-03-16T10:26:26.446Z,97574.05
2018-03-16T10:28:59.978Z,97581.25
2018-03-16T10:31:33.770Z,97578.91
2018-03-16T10:34:07.408Z,97582.84
2018-03-16T10:36:41.230Z,97583.67
2018-03-16T10:39:15.053Z,97591.89
2018-03-16T10:41:48.614Z,97585.73
2018-03-16T10:44:22.424Z,97592.59
2018-03-16T10:49:59.221Z,97593.87
2018-03-16T10:52:33.136Z,97602.42
2018-03-16T10:55:06.704Z,97603.11
2018-03-16T10:57:40.356Z,97606.31
2018-03-16T11:00:14.387Z,97606.14
2018-03-16T11:02:50.988Z,97607.03
2018-03-16T11:05:28.587Z,97611.09
2018-03-16T11:08:05.210Z,97613.41
2018-03-16T11:10:38.890Z,97616.09
2018-03-16T11:13:12.468Z,97613.88
2018-03-16T11:15:46.127Z,97616.75
2018-03-16T11:18:19.917Z,97620.41
2018-03-16T11:20:53.714Z,97621.34
2018-03-16T11:23:27.582Z,97626.72
2018-03-16T11:26:01.355Z,97627.39
2018-03-16T11:28:34.933Z,97626.68
2018-03-16T11:31:08.811Z,97628.09
2018-03-16T11:33:42.479Z,97630.09
2018-03-16T11:36:16.247Z,97629.59
2018-03-16T11:38:49.893Z,97634.11
2018-03-16T11:41:23.685Z,97631.10
2018-03-16T11:43:57.280Z,97629.81
2018-03-16T11:46:31.048Z,97636.48
2018-03-16T11:49:04.747Z,97638.98
2018-03-16T11:51:38.317Z,97641.50
2018-03-16T11:54:11.926Z,97647.63
2018-03-16T11:56:45.565Z,97645.01
2018-03-16T11:59:19.142Z,97649.62
2018-03-16T12:01:52.791Z,97655.58
2018-03-16T12:04:26.401Z,97653.20
2018-03-16T12:07:00.166Z,97656.26
2018-03-16T12:09:33.965Z,97653.48
2018-03-16T12:12:07.640Z,97654.93
2018-03-16T12:14:41.196Z,97656.70
2018-03-16T12:17:14.828Z,97657.00
2018-03-16T12:19:48.531Z,97656.92
2018-03-16T12:22:22.094Z,97656.93
2018-03-16T12:24:55.707Z,97656.06
2018-03-16T12:27:29.493Z,97660.12
2018-03-16T12:30:03.426Z,97660.16
2018-03-16T12:32:37.225Z,97664.33
2018-03-16T12:35:11.057Z,97662.69
2018-03-16T12:37:44.650Z,97667.80
2018-03-16T12:40:18.442Z,97669.53
2018-03-16T12:42:52.254Z,97660.48
2018-03-16T12:45:26.006Z,97666.43
2018-03-16T12:47:59.680Z,97661.20
2018-03-16T12:50:33.445Z,97663.59
2018-03-16T12:53:07.212Z,97669.69
2018-03-16T12:55:41.058Z,97675.58
2018-03-16T12:58:15.024Z,97670.48
2018-03-16T13:00:48.580Z,97674.22
2018-03-16T13:03:22.224Z,97675.59
2018-03-16T13:05:55.796Z,97676.69
2018-03-16T13:08:29.480Z,97678.52
2018-03-16T13:11:03.240Z,97682.27
2018-03-16T13:13:36.956Z,97680.09
2018-03-16T13:16:10.809Z,97681.49
2018-03-16T13:18:44.603Z,97683.81
2018-03-16T13:21:18.398Z,97673.60
2018-03-16T13:23:52.009Z,97674.77
2018-03-16T13:26:25.782Z,97677.41
2018-03-16T13:28:59.352Z,97675.90
2018-03-16T13:31:32.888Z,97679.93
2018-03-16T13:34:06.522Z,97678.02
2018-03-16T13:36:40.304Z,97684.11
2018-03-16T13:39:13.908Z,97687.59
2018-03-16T13:41:47.569Z,97687.94
2018-03-16T13:44:21.597Z,97678.00
2018-03-16T13:46:55.190Z,97685.31
2018-03-16T13:49:28.977Z,97698.59
2018-03-16T13:52:02.811Z,97696.96
2018-03-16T13:54:36.372Z,97695.53
2018-03-16T13:57:10.136Z,97700.77
2018-03-16T13:59:43.810Z,97695.69
2018-03-16T14:02:17.405Z,97698.66
2018-03-16T14:04:51.206Z,97695.48
2018-03-16T14:07:24.960Z,97703.56
2018-03-16T14:09:58.686Z,97702.50
2018-03-16T14:12:32.401Z,97705.44
2018-03-16T14:15:06.162Z,97705.79
2018-03-16T14:17:39.875Z,97704.33
2018-03-16T14:20:13.723Z,97706.41
2018-03-16T14:22:47.408Z,97703.92
2018-03-16T14:25:21.233Z,97707.08
2018-03-16T14:27:55.200Z,97713.66
2018-03-16T14:30:28.956Z,97719.44
2018-03-16T14:33:02.701Z,97720.05
2018-03-16T14:35:36.329Z,97722.98
2018-03-16T14:38:09.951Z,97718.73
2018-03-16T14:40:43.766Z,97720.32
2018-03-16T14:43:17.421Z,97718.97
2018-03-16T14:45:51.105Z,97719.34
2018-03-16T14:48:24.700Z,97725.16
2018-03-16T14:50:58.346Z,97727.06
2018-03-16T14:53:31.970Z,97726.28
2018-03-16T14:56:05.705Z,97723.61
2018-03-16T14:58:39.313Z,97726.84
2018-03-16T15:01:13.117Z,97738.52
2018-03-16T15:03:46.648Z,97732.34
2018-03-16T15:06:20.317Z,97733.12
2018-03-16T15:08:54.065Z,97741.10
2018-03-16T15:11:27.734Z,97745.63
2018-03-16T15:14:01.344Z,97743.13
2018-03-16T15:16:35.357Z,97745.22
2018-03-16T15:19:09.139Z,97738.06
2018-03-16T15:21:43.003Z,97743.25
2018-03-16T15:24:16.833Z,97742.26
2018-03-16T15:26:50.529Z,97735.19
2018-03-16T15:29:24.257Z,97738.92
2018-03-16T15:31:57.992Z,97742.20
2018-03-16T15:34:31.684Z,97742.36
2018-03-16T15:37:05.360Z,97747.17
2018-03-16T15:39:39.009Z,97747.08
2018-03-16T15:42:12.626Z,97746.95
2018-03-16T15:44:46.293Z,97750.91
2018-03-16T15:47:19.918Z,97748.37
2018-03-16T15:49:53.576Z,97738.81
2018-03-16T15:52:27.171Z,97739.53
2018-03-16T15:55:00.828Z,97741.59
2018-03-16T15:57:34.355Z,97735.17
2018-03-16T16:00:07.886Z,97744.66
2018-03-16T16:02:41.463Z,97731.91
2018-03-16T16:05:14.994Z,97744.72
2018-03-16T16:07:48.756Z,97747.84
2018-03-16T16:10:22.504Z,97749.38
2018-03-16T16:12:56.186Z,97754.58
2018-03-16T16:15:29.907Z,97751.09
2018-03-16T16:18:03.540Z,97760.89
2018-03-16T16:20:37.180Z,97762.27
2018-03-16T16:23:10.745Z,97759.74
2018-03-16T16:25:44.460Z,97766.89
2018-03-16T16:28:18.283Z,97771.27
2018-03-16T16:30:51.939Z,97775.59
2018-03-16T16:33:25.758Z,97773.41
2018-03-16T16:35:59.318Z,97783.90
2018-03-16T16:38:32.950Z,97783.25
2018-03-16T16:41:06.610Z,97785.16
2018-03-16T16:43:40.247Z,97778.31
2018-03-16T16:46:13.827Z,97789.72
2018-03-16T16:48:47.335Z,97792.33
2018-03-16T16:51:20.915Z,97790.58
2018-03-16T16:53:54.474Z,97788.27
2018-03-16T16:56:28.140Z,97793.86
2018-03-16T16:59:01.985Z,97794.12
2018-03-16T17:01:35.510Z,97796.55
2018-03-16T17:04:09.211Z,97806.39
2018-03-16T17:06:43.103Z,97814.55
2018-03-16T17:09:16.731Z,97805.73
2018-03-16T17:11:50.516Z,97816.85
2018-03-16T17:14:24.150Z,97816.99
2018-03-16T17:16:57.916Z,97821.55
2018-03-16T17:19:31.536Z,97818.62
2018-03-16T17:22:05.296Z,97815.90
2018-03-16T17:24:39.033Z,97829.44
2018-03-16T17:27:12.674Z,97834.23
2018-03-16T17:29:46.313Z,97838.10
2018-03-16T17:32:24.243Z,97845.13
2018-03-16T17:34:53.606Z,97844.91
2018-03-16T17:37:27.129Z,97847.27
2018-03-16T17:40:00.815Z,97844.47
2018-03-16T17:42:34.645Z,97845.29
2018-03-16T17:45:08.270Z,97847.69
2018-03-16T17:47:41.955Z,97843.65
2018-03-16T17:50:15.652Z,97842.66
2018-03-16T17:52:49.428Z,97843.34
2018-03-16T17:55:23.380Z,97844.84
2018-03-16T17:57:57.055Z,97853.68
2018-03-16T18:00:30.747Z,97852.73
2018-03-16T18:03:04.438Z,97854.62
2018-03-16T18:05:38.146Z,97858.92
2018-03-16T18:08:11.760Z,97859.87
2018-03-16T18:10:45.466Z,97861.23
2018-03-16T18:13:19.059Z,97856.00
2018-03-16T18:15:52.642Z,97862.93
2018-03-16T18:18:26.211Z,97863.33
2018-03-16T18:20:59.771Z,97865.89
2018-03-16T18:23:33.441Z,97867.11
2018-03-16T18:26:07.158Z,97871.50
2018-03-16T18:28:40.834Z,97868.84
2018-03-16T18:31:14.494Z,97875.28
2018-03-16T18:33:49.078Z,97876.35
2018-03-16T18:36:28.322Z,97877.73
2018-03-16T18:39:01.915Z,97883.88
2018-03-16T18:41:35.691Z,97887.50
2018-03-16T18:44:09.311Z,97885.76
2018-03-16T18:46:43.019Z,97888.23
2018-03-16T18:49:16.724Z,97888.27
2018-03-16T18:51:50.255Z,97891.44
2018-03-16T18:54:23.854Z,97880.62
2018-03-16T18:56:57.450Z,97878.62
2018-03-16T18:59:31.029Z,97884.52
2018-03-16T19:02:04.598Z,97879.96
2018-03-16T19:04:38.230Z,97883.05
2018-03-16T19:07:21.943Z,97887.50
2018-03-16T19:09:55.575Z,97885.76
2018-03-16T19:12:29.246Z,97889.25
2018-03-16T19:15:02.906Z,97883.83
2018-03-16T19:17:36.514Z,97887.03
2018-03-16T19:20:10.048Z,97871.27
2018-03-16T19:22:43.694Z,97876.75
2018-03-16T19:25:17.378Z,97882.66
2018-03-16T19:27:50.943Z,97885.58
2018-03-16T19:30:24.592Z,97887.72
2018-03-16T19:32:58.111Z,97889.47
2018-03-16T19:35:31.781Z,97895.73
2018-03-16T19:38:05.487Z,97898.40
2018-03-16T19:40:39.114Z,97903.38
2018-03-16T19:43:12.837Z,97905.40
2018-03-16T19:45:46.459Z,97904.06
2018-03-16T19:48:20.072Z,97913.16
2018-03-16T19:50:53.656Z,97917.59
2018-03-16T19:53:27.256Z,97913.05
2018-03-16T19:56:00.909Z,97913.58
2018-03-16T19:58:34.594Z,97915.21
2018-03-16T20:01:08.247Z,97911.48
2018-03-16T20:03:41.862Z,97911.64
2018-03-16T20:06:15.693Z,97915.78
2018-03-16T20:08:49.466Z,97914.72
2018-03-16T20:11:23.066Z,97925.81
2018-03-16T20:13:56.662Z,97922.61
2018-03-16T20:16:30.313Z,97929.96
2018-03-16T20:19:04.126Z,97929.41
2018-03-16T20:21:37.794Z,97933.30
2018-03-16T20:24:11.311Z,97933.70
2018-03-16T20:26:44.984Z,97938.41
2018-03-16T20:29:18.659Z,97944.28
2018-03-16T20:31:52.286Z,97955.09
2018-03-16T20:34:25.810Z,97961.52
2018-03-16T20:36:59.445Z,97957.25
2018-03-16T20:39:33.042Z,97960.98
2018-03-16T20:42:06.754Z,97965.27
2018-03-16T20:44:40.410Z,97973.82
2018-03-16T20:47:14.108Z,97969.26
2018-03-16T20:49:47.640Z,97978.48
2018-03-16T20:52:21.244Z,97981.83
2018-03-16T20:54:55.469Z,97982.91
2018-03-16T20:57:29.008Z,97991.99
2018-03-16T21:00:02.629Z,97992.41
2018-03-16T21:02:36.319Z,97987.47
2018-03-16T21:05:10.023Z,97992.95
2018-03-16T21:07:43.751Z,97997.36
2018-03-16T21:10:17.457Z,97992.80
2018-03-16T21:12:51.106Z,97996.80
2018-03-16T21:15:24.798Z,97996.53
2018-03-16T21:17:58.414Z,97993.34
2018-03-16T21:20:32.232Z,97997.34
2018-03-16T21:23:05.962Z,97992.53
2018-03-16T21:25:39.676Z,97995.61
2018-03-16T21:28:13.456Z,97997.75
2018-03-16T21:30:47.451Z,97992.67
2018-03-16T21:33:21.078Z,97997.22
2018-03-16T21:35:54.696Z,97995.21
2018-03-16T21:38:28.250Z,97996.55
2018-03-16T21:41:01.934Z,97997.48
2018-03-16T21:43:35.454Z,97994.41
2018-03-16T21:46:09.005Z,97994.95
2018-03-16T21:48:42.695Z,97993.34
2018-03-16T21:51:16.333Z,97996.28
2018-03-16T21:53:49.978Z,97987.06
2018-03-16T21:56:23.531Z,97986.13
2018-03-16T21:58:57.475Z,97978.12
2018-03-16T22:01:31.175Z,97984.00
2018-03-16T22:04:04.808Z,97991.20
2018-03-16T22:06:38.412Z,97985.59
2018-03-16T22:09:12.055Z,97983.45
2018-03-16T22:11:45.591Z,97990.13
2018-03-16T22:14:19.391Z,97990.54
2018-03-16T22:16:53.034Z,97979.72
2018-03-16T22:19:26.747Z,97981.05
2018-03-16T22:22:00.375Z,97982.25
2018-03-16T22:24:34.040Z,97982.66
2018-03-16T22:27:07.630Z,97983.45
2018-03-16T22:29:41.295Z,97979.98
2018-03-16T22:32:14.928Z,97978.25
2018-03-16T22:34:48.560Z,97975.84
2018-03-16T22:37:22.395Z,97969.69
2018-03-16T22:39:56.172Z,97975.03
2018-03-16T22:42:29.732Z,97976.78
2018-03-16T22:45:03.431Z,97979.44
2018-03-16T22:47:37.010Z,97982.92
2018-03-16T22:50:10.742Z,97979.84
2018-03-16T22:52:44.291Z,97986.79
2018-03-16T22:55:18.008Z,97992.80
2018-03-16T22:57:51.530Z,97988.13
2018-03-16T23:00:25.119Z,97988.13
2018-03-16T23:02:58.838Z,97987.33
2018-03-16T23:05:32.460Z,97989.20
2018-03-16T23:08:06.114Z,97983.84
2018-03-16T23:10:39.634Z,97969.16
2018-03-16T23:13:13.271Z,97964.61
2018-03-16T23:15:46.899Z,97967.82
2018-03-16T23:18:20.465Z,97969.95
2018-03-16T23:20:54.195Z,97971.83
2018-03-16T23:23:27.894Z,97974.77
2018-03-16T23:26:01.596Z,97979.45
2018-03-16T23:28:35.154Z,97971.57
2018-03-16T23:31:08.690Z,97982.52
2018-03-16T23:33:42.246Z,97980.66
2018-03-16T23:36:16.020Z,97979.58
2018-03-16T23:38:49.654Z,97980.66
2018-03-16T23:41:23.134Z,97977.29
2018-03-16T23:43:56.728Z,97977.98
2018-03-16T23:46:30.545Z,97975.42
2018-03-16T23:49:04.297Z,97973.28
2018-03-16T23:51:37.942Z,97973.28
2018-03-16T23:54:11.462Z,97974.63
2018-03-16T23:56:45.131Z,97971.28
2018-03-16T23:59:18.975Z,97967.41
